Time;durP1;ratioP1;P1;durP2;ratioP2;P2;SDS_P1;SDS_P2;PMS_P1;PMS_P2;Temp;Humidity;BMP_temperature;BMP_pressure;BME280_temperature;BME280_humidity;BME280_pressure;Samples;Min_cycle;Max_cycle;Signal;HPM_P1;HPM_P2
2021/06/29 00:01:59;;;;;;;11.53;5.10;;;;;;;17.67;78.87;99830.33;1703162;84;21576;-77
2021/06/29 00:04:27;;;;;;;9.43;5.53;;;;;;;17.67;78.84;99832.98;1702798;84;21521;-81
2021/06/29 00:06:54;;;;;;;7.97;5.35;;;;;;;17.62;78.85;99819.13;1702789;84;21524;-79
2021/06/29 00:09:21;;;;;;;7.80;5.08;;;;;;;17.64;79.08;99830.52;1703147;84;21113;-79
2021/06/29 00:11:48;;;;;;;11.25;5.87;;;;;;;17.63;79.12;99827.50;1702510;84;21661;-79
2021/06/29 00:14:15;;;;;;;5.62;4.83;;;;;;;17.61;79.04;99836.07;1702475;84;21105;-79
2021/06/29 00:16:42;;;;;;;10.48;5.28;;;;;;;17.60;79.08;99826.39;1702492;84;21160;-76
2021/06/29 00:19:09;;;;;;;6.87;5.37;;;;;;;17.59;79.16;99828.19;1703311;84;21368;-79
2021/06/29 00:21:35;;;;;;;7.92;4.62;;;;;;;17.58;79.42;99829.64;1702405;84;21143;-81
2021/06/29 00:24:03;;;;;;;5.30;4.37;;;;;;;17.55;79.49;99830.72;1702977;84;21090;-80
2021/06/29 00:26:30;;;;;;;5.72;4.10;;;;;;;17.54;79.78;99829.48;1703114;84;21022;-83
2021/06/29 00:28:58;;;;;;;4.83;3.87;;;;;;;17.50;80.03;99838.64;1704220;84;21054;-84
2021/06/29 00:31:25;;;;;;;7.45;3.70;;;;;;;17.45;80.16;99837.63;1704230;84;21026;-86
2021/06/29 00:33:52;;;;;;;6.65;4.28;;;;;;;17.40;80.29;99842.44;1704458;84;21114;-84
2021/06/29 00:36:18;;;;;;;9.35;5.05;;;;;;;17.32;80.31;99829.67;1703938;84;21078;-84
2021/06/29 00:38:45;;;;;;;5.42;4.70;;;;;;;17.28;80.56;99836.16;1704071;84;21090;-83
2021/06/29 00:41:12;;;;;;;9.03;4.95;;;;;;;17.25;80.66;99839.02;1704428;84;21011;-84
2021/06/29 00:43:50;;;;;;;6.65;4.20;;;;;;;17.22;80.82;99845.05;1704401;84;21086;-82
2021/06/29 00:46:17;;;;;;;9.40;5.58;;;;;;;17.21;81.06;99842.88;1703771;82;21512;-82
2021/06/29 00:48:45;;;;;;;8.70;5.70;;;;;;;17.21;81.18;99838.88;1703512;84;21079;-83
2021/06/29 00:51:14;;;;;;;7.25;5.70;;;;;;;17.19;81.16;99840.79;1704223;84;21063;-83
2021/06/29 00:53:42;;;;;;;8.35;5.20;;;;;;;17.17;81.23;99846.20;1690364;84;21105;-83
2021/06/29 00:56:15;;;;;;;6.87;5.40;;;;;;;17.17;81.28;99838.70;1687964;85;21081;-81
2021/06/29 00:58:47;;;;;;;9.33;5.72;;;;;;;17.16;81.35;99844.52;1688056;85;21134;-81
2021/06/29 01:01:14;;;;;;;7.95;5.08;;;;;;;17.16;81.61;99840.98;1688477;85;21105;-81
2021/06/29 01:03:41;;;;;;;7.08;4.85;;;;;;;17.13;81.67;99842.05;1688447;85;21120;-82
2021/06/29 01:06:10;;;;;;;4.22;3.42;;;;;;;17.11;81.82;99847.95;1689396;85;21069;-81
2021/06/29 01:08:38;;;;;;;7.65;4.65;;;;;;;17.08;81.93;99848.17;1688726;85;21125;-84
2021/06/29 01:11:05;;;;;;;4.42;4.03;;;;;;;17.07;82.03;99861.11;1687749;85;21302;-83
2021/06/29 01:13:37;;;;;;;8.23;5.05;;;;;;;17.05;82.33;99854.20;1687909;85;21055;-82
2021/06/29 01:16:05;;;;;;;6.17;4.72;;;;;;;17.06;82.33;99862.05;1687567;85;21125;-83
2021/06/29 01:18:35;;;;;;;6.50;5.47;;;;;;;17.06;82.17;99861.20;1687966;85;21022;-82
2021/06/29 01:21:03;;;;;;;9.98;5.08;;;;;;;17.06;82.22;99862.05;1688079;84;21118;-82
2021/06/29 01:23:31;;;;;;;9.18;5.50;;;;;;;17.07;82.10;99860.23;1688226;85;21131;-81
2021/06/29 01:26:18;;;;;;;8.20;5.35;;;;;;;17.07;82.11;99860.23;1688182;84;21066;-81
2021/06/29 01:28:53;;;;;;;6.58;5.50;;;;;;;17.08;82.24;99859.30;1702314;82;21074;-80
2021/06/29 01:31:15;;;;;;;6.72;5.80;;;;;;;17.11;82.25;99863.06;1702373;84;21031;-81
2021/06/29 01:33:43;;;;;;;8.63;5.78;;;;;;;17.10;82.33;99854.73;1702636;84;21022;-79
2021/06/29 01:36:26;;;;;;;6.67;5.17;;;;;;;17.11;82.37;99852.42;1703178;84;21122;-81
2021/06/29 01:38:53;;;;;;;9.28;4.95;;;;;;;17.09;82.53;99845.91;1702723;84;21106;-80
2021/06/29 01:41:25;;;;;;;5.22;4.72;;;;;;;17.10;82.48;99857.39;1702433;84;21042;-79
2021/06/29 01:44:08;;;;;;;5.10;4.28;;;;;;;17.09;82.42;99855.66;1702172;84;21086;-79
2021/06/29 01:46:36;;;;;;;6.00;5.22;;;;;;;17.10;82.57;99861.38;1701340;84;21022;-79
2021/06/29 01:49:01;;;;;;;7.50;5.78;;;;;;;17.08;82.48;99855.30;1702190;83;21140;-83
2021/06/29 01:51:28;;;;;;;7.87;5.47;;;;;;;17.08;82.47;99856.64;1702497;84;21525;-80
2021/06/29 01:53:55;;;;;;;11.25;5.70;;;;;;;17.09;82.57;99857.00;1703220;83;21065;-82
2021/06/29 01:56:28;;;;;;;6.92;5.92;;;;;;;17.08;82.52;99856.64;1703451;84;21054;-81
2021/06/29 01:58:53;;;;;;;8.03;6.35;;;;;;;17.07;82.63;99850.92;1702842;84;21049;-84
2021/06/29 02:01:19;;;;;;;7.28;6.05;;;;;;;17.07;82.67;99856.25;1703514;83;21136;-85
2021/06/29 02:03:46;;;;;;;9.40;6.15;;;;;;;17.07;82.80;99862.90;1703157;84;21529;-82
2021/06/29 02:06:15;;;;;;;9.13;6.05;;;;;;;17.08;83.10;99864.63;1703384;84;21053;-83
2021/06/29 02:08:42;;;;;;;8.30;5.72;;;;;;;17.06;83.38;99866.53;1703710;84;21057;-82
2021/06/29 02:11:09;;;;;;;8.28;6.30;;;;;;;17.07;83.38;99865.55;1703259;84;21125;-82
2021/06/29 02:13:35;;;;;;;6.53;5.17;;;;;;;17.07;83.40;99865.55;1703233;84;21116;-83
2021/06/29 02:16:02;;;;;;;7.00;4.72;;;;;;;17.08;83.37;99859.30;1702966;84;21054;-83
2021/06/29 02:18:29;;;;;;;12.43;6.15;;;;;;;17.09;83.37;99852.55;1703096;84;21105;-83
2021/06/29 02:20:57;;;;;;;8.25;5.90;;;;;;;17.10;83.51;99854.73;1703029;84;21042;-86
2021/06/29 02:23:23;;;;;;;6.55;4.20;;;;;;;17.13;83.47;99855.84;1703158;84;21102;-83
2021/06/29 02:25:50;;;;;;;6.90;4.00;;;;;;;17.14;83.51;99845.58;1702996;84;21812;-82
2021/06/29 02:28:19;;;;;;;7.33;5.62;;;;;;;17.17;83.63;99846.69;1732451;82;21065;-81
2021/06/29 02:30:46;;;;;;;8.68;5.83;;;;;;;17.21;83.55;99844.20;1731609;82;20980;-82
2021/06/29 02:33:13;;;;;;;10.25;5.67;;;;;;;17.26;83.33;99843.39;1663357;86;21039;-82
2021/06/29 02:35:40;;;;;;;6.15;5.05;;;;;;;17.31;83.22;99843.92;1731253;82;21010;-83
2021/06/29 02:38:07;;;;;;;10.63;5.55;;;;;;;17.36;83.27;99845.78;1731572;82;21620;-81
2021/06/29 02:40:34;;;;;;;7.40;5.72;;;;;;;17.40;83.37;99847.27;1730308;82;21038;-80
2021/06/29 02:43:01;;;;;;;7.42;5.95;;;;;;;17.46;83.16;99851.78;1731042;82;21101;-82
2021/06/29 02:45:28;;;;;;;7.58;5.62;;;;;;;17.52;83.03;99854.03;1663553;86;21036;-83
2021/06/29 02:47:58;;;;;;;10.40;6.03;;;;;;;17.57;82.93;99856.73;1731193;82;21054;-85
2021/06/29 02:50:25;;;;;;;7.67;5.87;;;;;;;17.64;82.81;99851.82;1663570;86;21129;-84
2021/06/29 02:52:53;;;;;;;6.60;5.87;;;;;;;17.74;82.63;99855.55;1732318;82;21184;-79
2021/06/29 02:55:20;;;;;;;76.57;8.23;;;;;;;17.84;82.31;99846.94;1734923;82;21053;-78
2021/06/29 02:57:47;;;;;;;7.87;6.03;;;;;;;17.94;81.99;99846.63;1735077;82;21014;-83
2021/06/29 03:00:16;;;;;;;8.38;5.42;;;;;;;18.05;81.67;99850.70;1732794;82;21564;-80
2021/06/29 03:02:44;;;;;;;9.33;6.10;;;;;;;18.18;81.20;99850.19;1729319;82;22204;-81
2021/06/29 03:07:46;;;;;;;8.45;4.55;;;;;;;18.51;80.18;99857.98;1882463;75;22371;-82
2021/06/29 03:10:13;;;;;;;5.08;4.30;;;;;;;18.60;79.67;99869.80;1859004;77;21580;-83
2021/06/29 03:12:40;;;;;;;6.08;4.67;;;;;;;18.73;79.00;99865.73;1859376;77;21082;-82
2021/06/29 03:15:07;;;;;;;7.28;5.05;;;;;;;18.81;78.45;99863.36;1859250;77;21539;-83
2021/06/29 03:17:34;;;;;;;7.95;5.35;;;;;;;18.88;77.94;99863.75;1859704;77;21499;-83
2021/06/29 03:20:01;;;;;;;9.23;5.12;;;;;;;18.93;77.47;99866.42;1859311;77;20992;-82
2021/06/29 03:22:28;;;;;;;7.78;5.97;;;;;;;18.99;77.21;99871.79;1859634;77;21095;-83
2021/06/29 03:24:55;;;;;;;7.75;5.15;;;;;;;19.05;76.87;99877.52;1859207;77;21102;-81
2021/06/29 03:27:22;;;;;;;15.13;6.37;;;;;;;19.11;76.60;99882.01;1871922;76;20957;-83
2021/06/29 03:29:49;;;;;;;7.03;5.65;;;;;;;19.16;76.38;99886.50;1879554;76;20972;-81
2021/06/29 03:32:17;;;;;;;7.00;6.25;;;;;;;19.20;76.31;99891.98;1879635;76;21079;-81
2021/06/29 03:34:44;;;;;;;7.83;5.95;;;;;;;19.26;76.02;99896.86;1879626;76;20985;-81
2021/06/29 03:37:11;;;;;;;10.68;5.97;;;;;;;19.30;75.86;99892.95;1880328;76;21453;-81
2021/06/29 03:39:38;;;;;;;7.83;6.17;;;;;;;19.35;75.77;99893.48;1878886;76;21409;-81
2021/06/29 03:42:06;;;;;;;8.75;6.05;;;;;;;19.41;75.73;99891.65;1878119;76;20906;-81
2021/06/29 03:44:33;;;;;;;6.35;5.53;;;;;;;19.49;75.48;99891.91;1790211;80;21017;-82
2021/06/29 03:46:59;;;;;;;6.50;4.08;;;;;;;19.58;74.91;99888.14;1822934;78;21371;-81
2021/06/29 03:49:26;;;;;;;7.53;4.37;;;;;;;19.65;74.61;99886.72;1790382;80;21060;-80
2021/06/29 03:51:53;;;;;;;5.75;4.17;;;;;;;19.71;74.34;99884.91;1822671;78;21022;-82
2021/06/29 03:54:21;;;;;;;7.30;5.08;;;;;;;19.78;73.96;99886.13;1790082;79;21013;-78
2021/06/29 03:56:47;;;;;;;7.20;4.70;;;;;;;19.82;73.67;99880.91;1809471;78;21044;-80
2021/06/29 03:59:14;;;;;;;7.95;5.58;;;;;;;19.89;73.43;99883.45;1797592;79;21048;-80
2021/06/29 04:01:41;;;;;;;8.10;5.83;;;;;;;19.94;73.24;99881.74;1789424;79;21112;-81
2021/06/29 04:04:09;;;;;;;6.22;5.62;;;;;;;19.99;73.01;99886.26;1759725;80;21058;-81
2021/06/29 04:06:37;;;;;;;9.20;5.70;;;;;;;20.04;72.88;99884.05;1779060;80;21025;-79
2021/06/29 04:09:07;;;;;;;8.30;6.05;;;;;;;20.10;72.70;99881.36;1788750;80;21037;-78
2021/06/29 04:11:35;;;;;;;7.20;6.37;;;;;;;20.18;72.62;99886.95;1782187;80;21101;-79
2021/06/29 04:14:02;;;;;;;8.55;5.50;;;;;;;20.26;72.53;99877.80;1778002;80;21109;-79
2021/06/29 04:16:29;;;;;;;9.50;5.80;;;;;;;20.33;72.08;99885.69;1773343;80;21033;-80
2021/06/29 04:18:56;;;;;;;9.18;5.87;;;;;;;20.44;71.72;99886.16;1782127;79;20989;-80
2021/06/29 04:21:23;;;;;;;9.10;5.42;;;;;;;20.54;71.18;99891.12;1781292;80;21073;-81
2021/06/29 04:23:50;;;;;;;7.62;5.47;;;;;;;20.65;70.83;99886.73;1781777;80;21098;-82
2021/06/29 04:26:18;;;;;;;7.47;5.92;;;;;;;20.79;70.48;99888.26;1771776;78;21619;-79
2021/06/29 04:28:46;;;;;;;8.03;6.10;;;;;;;20.99;70.20;99884.76;1765253;80;21034;-78
2021/06/29 04:31:13;;;;;;;9.53;6.92;;;;;;;21.18;69.60;99874.67;1776105;80;21858;-81
2021/06/29 04:33:40;;;;;;;6.78;5.62;;;;;;;21.44;69.21;99872.48;1772932;80;21066;-79
2021/06/29 04:36:07;;;;;;;8.48;5.20;;;;;;;21.71;68.33;99870.54;1783837;80;21532;-80
2021/06/29 04:38:34;;;;;;;7.30;6.30;;;;;;;22.04;67.26;99875.73;1766150;79;21117;-78
2021/06/29 04:41:01;;;;;;;8.38;4.70;;;;;;;22.24;65.57;99869.97;1774981;80;21037;-81
2021/06/29 04:43:28;;;;;;;8.75;5.83;;;;;;;22.35;64.98;99873.88;1771638;79;21115;-78
2021/06/29 04:45:55;;;;;;;8.45;5.60;;;;;;;22.44;64.91;99870.86;1760501;79;21201;-84
2021/06/29 04:48:23;;;;;;;8.38;5.10;;;;;;;22.52;64.71;99875.89;1785069;79;21023;-84
2021/06/29 04:50:59;;;;;;;7.22;5.60;;;;;;;22.57;64.17;99867.42;1775992;80;21529;-85
2021/06/29 04:53:28;;;;;;;7.70;5.70;;;;;;;22.60;63.58;99864.44;1767637;80;21085;-83
2021/06/29 04:55:58;;;;;;;6.72;5.42;;;;;;;22.63;63.42;99872.20;1740313;80;21049;-84
2021/06/29 04:58:24;;;;;;;8.53;5.83;;;;;;;22.68;63.31;99869.94;1767287;79;21081;-85
2021/06/29 05:00:51;;;;;;;9.15;5.90;;;;;;;22.74;62.68;99869.38;1769675;79;21052;-85
2021/06/29 05:03:18;;;;;;;9.43;5.42;;;;;;;22.81;62.51;99873.20;1777202;79;21125;-85
2021/06/29 05:05:45;;;;;;;9.30;5.62;;;;;;;22.89;62.71;99866.27;1762694;79;21128;-86
2021/06/29 05:08:12;;;;;;;9.53;5.40;;;;;;;23.04;62.14;99875.62;1760786;80;21062;-86
2021/06/29 05:10:39;;;;;;;9.85;5.42;;;;;;;23.18;61.91;99872.48;1786935;80;21084;-85
2021/06/29 05:13:06;;;;;;;8.98;4.92;;;;;;;23.39;61.65;99875.48;1773324;80;21077;-87
2021/06/29 05:15:33;;;;;;;8.33;5.00;;;;;;;23.72;61.27;99867.86;1776867;80;21119;-84
2021/06/29 05:18:00;;;;;;;7.58;5.05;;;;;;;23.99;59.31;99868.41;1808951;79;21534;-86
2021/06/29 05:20:27;;;;;;;7.42;5.30;;;;;;;24.16;58.43;99861.41;1798540;79;21104;-85
2021/06/29 05:22:53;;;;;;;7.85;4.80;;;;;;;24.26;57.36;99860.33;1783796;79;21038;-83
2021/06/29 05:25:20;;;;;;;8.35;4.37;;;;;;;24.33;57.92;99863.26;1802242;78;21033;-85
2021/06/29 05:27:47;;;;;;;5.65;4.33;;;;;;;24.43;57.53;99866.75;1768197;78;21132;-85
2021/06/29 05:30:16;;;;;;;7.85;4.53;;;;;;;24.56;56.54;99864.20;1783209;80;21053;-85
2021/06/29 05:32:43;;;;;;;6.78;5.00;;;;;;;24.58;55.34;99856.82;1791436;80;21124;-85
2021/06/29 05:35:11;;;;;;;7.33;4.90;;;;;;;24.51;55.61;99861.13;1773103;80;20990;-84
2021/06/29 05:37:38;;;;;;;6.72;4.70;;;;;;;24.56;56.35;99864.20;1771759;80;21104;-88
2021/06/29 05:40:06;;;;;;;6.95;4.87;;;;;;;24.67;55.87;99864.81;1768226;80;21122;-84
2021/06/29 05:42:32;;;;;;;8.53;5.03;;;;;;;24.82;55.69;99858.36;1776999;80;21431;-87
2021/06/29 05:44:59;;;;;;;7.20;4.80;;;;;;;24.98;55.30;99856.81;1769230;80;21060;-84
2021/06/29 05:47:26;;;;;;;12.40;5.70;;;;;;;25.05;54.69;99857.88;1760335;81;21036;-85
2021/06/29 05:49:53;;;;;;;8.88;4.95;;;;;;;25.08;54.85;99857.59;1760412;81;21037;-84
2021/06/29 05:52:20;;;;;;;8.80;5.42;;;;;;;25.22;54.65;99859.73;1760358;81;21115;-84
2021/06/29 05:54:51;;;;;;;9.93;5.22;;;;;;;25.38;53.84;99859.51;1785828;80;21057;-85
2021/06/29 05:57:18;;;;;;;8.38;5.70;;;;;;;25.56;53.49;99858.94;1787400;80;21176;-84
2021/06/29 05:59:45;;;;;;;21.40;6.97;;;;;;;25.71;53.05;99859.17;1781468;80;21013;-85
2021/06/29 06:02:12;;;;;;;17.98;9.95;;;;;;;25.73;52.93;99858.00;1789996;80;21068;-84
2021/06/29 06:04:39;;;;;;;30.40;16.65;;;;;;;25.77;52.59;99857.67;1791790;80;21080;-85
2021/06/29 06:07:06;;;;;;;45.30;22.58;;;;;;;25.85;52.18;99855.02;1774814;80;21076;-86
2021/06/29 06:09:33;;;;;;;51.35;26.70;;;;;;;25.94;49.88;99860.82;1782419;80;21057;-84
2021/06/29 06:12:00;;;;;;;12.37;6.17;;;;;;;26.02;50.05;99855.47;1773910;80;21088;-85
2021/06/29 06:14:27;;;;;;;37.10;19.95;;;;;;;26.15;50.30;99862.57;1766944;79;21123;-85
2021/06/29 06:16:53;;;;;;;32.98;17.82;;;;;;;26.29;49.20;99853.51;1775123;79;21133;-79
2021/06/29 06:19:20;;;;;;;16.15;9.48;;;;;;;26.41;48.79;99853.55;1788119;79;21039;-77
2021/06/29 06:21:47;;;;;;;39.18;18.73;;;;;;;26.46;47.37;99859.30;1787183;79;21051;-77
2021/06/29 06:24:14;;;;;;;13.58;7.58;;;;;;;26.48;47.95;99857.27;1781014;79;21008;-78
2021/06/29 06:26:41;;;;;;;26.52;14.07;;;;;;;26.49;47.97;99856.25;1787448;79;21236;-78
2021/06/29 06:29:08;;;;;;;13.58;6.97;;;;;;;26.47;47.88;99859.62;1774552;79;21045;-78
2021/06/29 06:31:35;;;;;;;22.32;6.22;;;;;;;26.45;48.48;99858.94;1770227;80;21127;-78
2021/06/29 06:34:02;;;;;;;9.50;4.67;;;;;;;26.43;47.97;99856.91;1786608;79;21047;-78
2021/06/29 06:36:29;;;;;;;29.20;5.53;;;;;;;26.45;48.32;99856.75;1768661;79;21076;-79
2021/06/29 06:38:56;;;;;;;35.60;7.80;;;;;;;26.42;47.96;99855.74;1805531;78;21035;-89
2021/06/29 06:41:23;;;;;;;11.65;4.78;;;;;;;26.44;48.80;99855.91;1775190;80;21165;-88
2021/06/29 06:43:50;;;;;;;8.15;5.03;;;;;;;26.55;48.55;99862.38;1766457;79;21073;-88
2021/06/29 06:46:17;;;;;;;9.10;5.05;;;;;;;26.82;49.03;99864.92;1773259;80;21116;-78
2021/06/29 06:48:44;;;;;;;5.92;4.22;;;;;;;27.09;48.02;99867.80;1764003;78;21065;-77
2021/06/29 06:51:12;;;;;;;10.03;5.12;;;;;;;27.45;47.04;99859.30;1776536;78;21040;-77
2021/06/29 06:53:39;;;;;;;12.78;5.22;;;;;;;27.81;46.12;99860.58;1786045;79;21115;-80
2021/06/29 06:56:06;;;;;;;19.55;6.17;;;;;;;28.23;45.02;99853.97;1789083;78;21595;-77
2021/06/29 06:58:33;;;;;;;9.03;5.00;;;;;;;28.56;44.22;99848.37;1776287;80;21075;-78
2021/06/29 07:01:00;;;;;;;13.30;6.50;;;;;;;28.86;43.42;99848.48;1771761;80;21536;-77
2021/06/29 07:03:27;;;;;;;16.20;6.70;;;;;;;29.19;40.42;99851.75;1773215;80;21041;-76
2021/06/29 07:05:55;;;;;;;12.45;4.80;;;;;;;29.49;39.81;99848.58;1777365;78;21061;-77
2021/06/29 07:08:25;;;;;;;7.37;4.55;;;;;;;29.77;39.05;99841.17;1767249;79;21547;-88
2021/06/29 07:10:55;;;;;;;10.47;5.50;;;;;;;29.93;38.33;99837.90;1774802;78;21069;-85
2021/06/29 07:13:21;;;;;;;10.18;6.10;;;;;;;29.93;38.53;99841.97;1776935;80;21354;-87
2021/06/29 07:15:47;;;;;;;7.83;4.83;;;;;;;29.97;38.89;99841.41;1782115;80;21020;-87
2021/06/29 07:18:16;;;;;;;6.97;4.30;;;;;;;30.05;38.88;99839.12;1775519;79;21156;-78
2021/06/29 07:20:45;;;;;;;7.30;3.83;;;;;;;30.34;38.16;99837.38;1769288;80;20998;-76
2021/06/29 07:23:13;;;;;;;6.55;3.80;;;;;;;30.44;38.87;99840.63;1773422;80;21033;-78
2021/06/29 07:25:41;;;;;;;4.47;3.92;;;;;;;30.65;38.01;99835.19;1779059;80;21073;-76
2021/06/29 07:28:08;;;;;;;4.35;3.27;;;;;;;30.74;37.69;99835.38;1774456;80;21068;-77
2021/06/29 07:30:36;;;;;;;5.25;3.37;;;;;;;30.61;37.52;99839.33;1774255;80;21148;-78
2021/06/29 07:33:05;;;;;;;7.30;3.20;;;;;;;30.49;36.99;99843.60;1777570;80;22145;-79
2021/06/29 07:35:32;;;;;;;7.60;3.50;;;;;;;30.35;36.76;99855.37;1781849;80;21563;-77
2021/06/29 07:38:02;;;;;;;7.10;3.42;;;;;;;29.99;36.27;99842.06;1780230;80;21072;-77
2021/06/29 07:40:31;;;;;;;7.15;3.27;;;;;;;29.99;36.27;99842.06;1781894;80;21030;-77
2021/06/29 07:42:58;;;;;;;4.87;3.37;;;;;;;30.16;37.04;99839.98;1782816;79;21124;-77
2021/06/29 07:45:27;;;;;;;12.50;4.72;;;;;;;30.52;36.57;99840.48;1786083;79;21081;-77
2021/06/29 07:47:55;;;;;;;8.38;4.28;;;;;;;30.86;35.70;99843.05;1785849;79;21038;-77
2021/06/29 07:50:23;;;;;;;7.67;3.37;;;;;;;31.12;33.50;99843.23;1771663;80;21185;-77
2021/06/29 07:52:50;;;;;;;6.95;3.58;;;;;;;31.18;33.14;99844.88;1788243;79;21085;-78
2021/06/29 07:55:17;;;;;;;7.12;4.45;;;;;;;31.17;32.25;99847.25;1804206;79;21157;-78
2021/06/29 07:57:44;;;;;;;7.35;3.25;;;;;;;31.31;33.04;99842.22;1802713;79;21049;-78
2021/06/29 08:00:13;;;;;;;4.20;3.58;;;;;;;31.68;31.08;99844.25;1775751;79;21051;-78
2021/06/29 08:02:39;;;;;;;7.15;2.95;;;;;;;31.84;31.10;99842.58;1780458;79;21090;-78
2021/06/29 08:05:07;;;;;;;3.80;3.20;;;;;;;31.92;31.79;99837.48;1781625;79;20939;-77
2021/06/29 08:07:34;;;;;;;4.72;2.95;;;;;;;31.98;30.81;99838.06;1780805;78;21820;-78
2021/06/29 08:10:02;;;;;;;6.35;3.10;;;;;;;32.10;31.24;99835.59;1772123;79;21053;-77
2021/06/29 08:12:29;;;;;;;4.47;3.02;;;;;;;32.38;30.92;99830.84;1778038;79;21074;-77
2021/06/29 08:14:56;;;;;;;4.67;3.62;;;;;;;32.49;30.42;99825.84;1754300;80;21074;-75
2021/06/29 08:17:24;;;;;;;8.30;3.20;;;;;;;32.49;30.23;99821.75;1794495;79;21682;-78
2021/06/29 08:19:51;;;;;;;3.83;2.98;;;;;;;32.57;30.32;99821.56;1775953;80;21541;-78
2021/06/29 08:22:19;;;;;;;9.28;3.33;;;;;;;32.71;29.54;99810.98;1789133;79;21022;-77
2021/06/29 08:24:46;;;;;;;5.95;3.17;;;;;;;32.71;29.87;99810.16;1789857;78;21054;-78
2021/06/29 08:27:18;;;;;;;5.90;3.25;;;;;;;32.76;30.26;99818.03;1798904;78;21099;-77
2021/06/29 08:29:47;;;;;;;6.75;3.15;;;;;;;32.95;30.16;99820.44;1795452;78;22329;-76
2021/06/29 08:32:14;;;;;;;5.97;3.17;;;;;;;32.82;29.86;99832.70;1792922;79;21174;-78
2021/06/29 08:34:41;;;;;;;7.28;3.50;;;;;;;32.44;29.00;99826.96;1801144;78;21040;-78
2021/06/29 08:37:09;;;;;;;5.87;3.10;;;;;;;32.12;29.80;99823.97;1794874;78;21032;-78
2021/06/29 08:39:36;;;;;;;4.45;3.27;;;;;;;32.01;29.24;99822.67;1794397;78;21058;-75
2021/06/29 08:42:03;;;;;;;3.92;3.10;;;;;;;31.81;29.80;99817.10;1789879;78;21610;-78
2021/06/29 08:44:30;;;;;;;5.22;3.20;;;;;;;31.34;30.30;99820.08;1787184;78;21543;-78
2021/06/29 08:46:57;;;;;;;7.20;3.05;;;;;;;30.89;30.94;99818.17;1791602;78;21104;-77
2021/06/29 08:49:24;;;;;;;3.00;2.27;;;;;;;30.70;31.31;99817.77;1778777;78;21570;-78
2021/06/29 08:51:52;;;;;;;50.17;5.90;;;;;;;30.18;31.83;99827.02;1786857;78;21051;-84
2021/06/29 08:54:21;;;;;;;41.63;6.67;;;;;;;29.61;34.50;99830.45;1795044;78;21085;-80
2021/06/29 08:56:49;;;;;;;;;;;;;;;29.43;35.51;99833.05;1802734;78;21837;-80
2021/06/29 08:59:16;;;;;;;10.95;3.95;;;;;;;29.32;35.14;99836.22;1802794;79;20198;-79
2021/06/29 09:01:44;;;;;;;7.90;3.22;;;;;;;29.17;34.65;99815.88;1793786;79;21549;-83
2021/06/29 09:04:11;;;;;;;9.78;2.80;;;;;;;29.33;34.26;99814.00;1794730;79;20982;-82
2021/06/29 09:06:40;;;;;;;5.00;2.92;;;;;;;29.59;34.35;99797.27;1808964;78;21088;-85
2021/06/29 09:09:28;;;;;;;6.35;2.72;;;;;;;29.87;33.26;99797.44;1798576;78;22323;-83
2021/06/29 09:11:56;;;;;;;6.10;3.10;;;;;;;29.65;32.43;99793.78;1789135;78;21555;-82
2021/06/29 09:14:30;;;;;;;5.78;2.90;;;;;;;29.29;32.74;99799.98;1787612;80;21052;-84
2021/06/29 09:17:18;;;;;;;5.75;2.90;;;;;;;29.23;32.64;99800.72;1780821;80;21084;-83
2021/06/29 09:19:45;;;;;;;4.17;2.45;;;;;;;29.38;33.45;99802.94;1786893;80;21111;-84
2021/06/29 09:22:31;;;;;;;5.42;2.70;;;;;;;29.49;31.22;99807.89;1782609;78;21120;-82
2021/06/29 09:25:00;;;;;;;32.98;5.00;;;;;;;29.40;31.83;99815.80;1783156;80;21010;-84
2021/06/29 09:27:44;;;;;;;27.10;4.80;;;;;;;29.20;38.87;99841.77;1785392;79;21072;-82
2021/06/29 09:30:34;;;;;;;7.70;2.58;;;;;;;28.59;41.31;99838.52;1782404;80;21634;-89
2021/06/29 09:33:08;;;;;;;4.50;2.47;;;;;;;27.28;36.70;99818.79;1788146;80;21001;-86
2021/06/29 09:35:36;;;;;;;9.18;3.17;;;;;;;26.23;39.37;99813.70;1774950;80;21277;-84
2021/06/29 09:38:03;;;;;;;14.13;3.47;;;;;;;25.56;43.71;99826.59;1777209;80;21032;-86
2021/06/29 09:40:32;;;;;;;9.65;3.08;;;;;;;25.06;49.71;99833.48;1777215;80;21242;-87
2021/06/29 09:43:17;;;;;;;8.38;3.58;;;;;;;24.65;49.53;99820.20;1784068;80;21033;-88
2021/06/29 09:45:47;;;;;;;10.03;3.80;;;;;;;24.17;49.69;99801.20;1773136;80;21001;-87
2021/06/29 09:48:36;;;;;;;15.88;4.00;;;;;;;23.79;52.65;99803.16;1778248;80;21094;-90
2021/06/29 09:51:24;;;;;;;10.95;4.30;;;;;;;23.65;53.46;99794.55;1776732;80;21037;-86
2021/06/29 09:53:53;;;;;;;14.10;4.10;;;;;;;23.64;56.20;99786.13;1775043;80;21570;-86
2021/06/29 09:56:24;;;;;;;20.30;4.80;;;;;;;23.75;55.24;99781.59;1777532;80;21084;-85
2021/06/29 09:58:54;;;;;;;10.78;4.17;;;;;;;24.03;58.09;99777.86;1779462;80;22239;-89
2021/06/29 10:01:28;;;;;;;7.58;4.22;;;;;;;24.55;63.15;99772.31;1776821;80;25747;-77
2021/06/29 10:03:57;;;;;;;12.82;4.60;;;;;;;25.12;64.09;99768.68;1785542;80;21063;-77
2021/06/29 10:06:30;;;;;;;17.40;4.15;;;;;;;25.61;60.60;99764.92;1753012;81;21051;-77
2021/06/29 10:09:06;;;;;;;8.30;3.40;;;;;;;26.12;56.39;99771.16;1788994;78;21068;-76
2021/06/29 10:11:37;;;;;;;10.40;3.25;;;;;;;26.66;52.84;99772.58;1782064;78;21052;-77
2021/06/29 10:14:07;;;;;;;4.70;3.30;;;;;;;27.19;47.71;99774.70;1788755;78;21159;-76
2021/06/29 10:16:40;;;;;;;8.15;3.37;;;;;;;27.81;44.85;99773.99;1798695;78;21101;-77
2021/06/29 10:21:51;;;;;;;13.48;3.27;;;;;;;28.48;43.73;99769.87;1782487;78;21580;-76
2021/06/29 10:24:24;;;;;;;6.90;3.22;;;;;;;28.68;44.84;99763.44;1797131;78;21052;-77
2021/06/29 10:26:59;;;;;;;5.12;2.87;;;;;;;28.88;44.71;99761.06;1798412;78;21143;-75
2021/06/29 10:29:25;;;;;;;4.70;3.22;;;;;;;29.02;42.82;99761.59;1777072;80;21133;-75
2021/06/29 10:32:04;;;;;;;9.03;3.50;;;;;;;29.05;44.05;99765.27;1766627;80;21575;-75
2021/06/29 10:34:30;;;;;;;16.32;3.30;;;;;;;29.05;45.12;99769.86;1780314;80;21050;-77
2021/06/29 10:36:56;;;;;;;3.83;2.87;;;;;;;28.96;45.09;99771.80;1777841;79;21042;-76
2021/06/29 10:39:29;;;;;;;4.47;3.10;;;;;;;28.79;43.35;99775.72;1772440;80;21589;-75
2021/06/29 10:42:10;;;;;;;3.80;3.08;;;;;;;28.58;43.92;99774.54;1743952;79;21052;-77
2021/06/29 10:44:46;;;;;;;4.97;2.75;;;;;;;28.29;43.07;99780.64;1774090;80;21066;-77
2021/06/29 10:47:32;;;;;;;168.57;97.62;;;;;;;27.98;43.16;99780.70;1769946;79;21054;-77
2021/06/29 10:50:00;;;;;;;365.00;208.02;;;;;;;27.80;44.79;99788.52;1771485;79;21045;-75
2021/06/29 10:52:34;;;;;;;183.27;101.92;;;;;;;27.73;42.61;99781.30;1771148;78;21127;-78
2021/06/29 10:55:19;;;;;;;225.03;132.07;;;;;;;27.66;42.47;99781.16;1783597;79;21007;-77
2021/06/29 10:57:50;;;;;;;40.05;22.37;;;;;;;27.68;44.00;99781.83;1785126;79;21026;-75
2021/06/29 11:00:22;;;;;;;22.22;12.47;;;;;;;27.78;44.20;99781.09;1785330;80;28333;-75
2021/06/29 11:03:08;;;;;;;19.23;11.55;;;;;;;28.03;44.27;99782.35;1774281;80;21063;-76
2021/06/29 11:05:44;;;;;;;34.03;17.02;;;;;;;28.40;43.81;99783.45;1767624;79;21784;-76
2021/06/29 11:08:20;;;;;;;14.58;6.33;;;;;;;28.68;41.68;99778.86;1771003;80;21058;-76
2021/06/29 11:10:49;;;;;;;10.13;4.42;;;;;;;28.81;41.10;99770.95;1778524;79;21054;-76
2021/06/29 11:13:19;;;;;;;51.63;27.07;;;;;;;28.92;40.32;99765.58;1763254;80;21095;-75
2021/06/29 11:15:54;;;;;;;77.35;44.58;;;;;;;29.32;39.23;99755.38;1773604;79;21053;-76
2021/06/29 11:18:45;;;;;;;104.35;57.73;;;;;;;29.78;38.27;99758.70;1782749;79;21823;-76
2021/06/29 11:21:22;;;;;;;;;;;;;;;30.26;35.89;99752.27;1783092;79;21068;-76
2021/06/29 11:23:49;;;;;;;9.75;6.33;;;;;;;30.66;35.72;99768.91;1777328;79;20153;-76
2021/06/29 11:26:18;;;;;;;7.50;4.08;;;;;;;30.79;35.19;99771.44;1775420;80;21093;-78
2021/06/29 11:28:50;;;;;;;26.02;5.90;;;;;;;30.85;37.71;99781.53;1766973;79;21155;-76
2021/06/29 11:31:30;;;;;;;36.42;19.05;;;;;;;30.70;44.20;99782.44;1775810;79;21078;-75
2021/06/29 11:34:15;;;;;;;18.23;9.08;;;;;;;30.24;46.09;99771.12;1769682;79;21135;-76
2021/06/29 11:36:51;;;;;;;26.15;15.58;;;;;;;30.08;47.93;99762.17;1767927;79;21578;-77
2021/06/29 11:39:23;;;;;;;53.58;28.45;;;;;;;30.23;47.94;99766.70;1780863;80;21122;-76
2021/06/29 11:42:04;;;;;;;11.03;5.28;;;;;;;30.30;45.57;99771.22;1771932;79;21085;-77
2021/06/29 11:44:36;;;;;;;11.50;3.97;;;;;;;30.39;48.93;99767.00;1784458;79;21129;-77
2021/06/29 11:47:14;;;;;;;7.78;4.17;;;;;;;30.41;48.26;99761.69;1794745;77;21068;-78